Time;durP1;ratioP1;P1;durP2;ratioP2;P2;SDS_P1;SDS_P2;PMS_P1;PMS_P2;Temp;Humidity;BMP_temperature;BMP_pressure;BME280_temperature;BME280_humidity;BME280_pressure;Samples;Min_cycle;Max_cycle;Signal;HPM_P1;HPM_P2
2022/10/18 00:02:12;;;;;;;18.98;9.35;;;15.70;99.90;;;;;;5025218;28;20042;-64
2022/10/18 00:04:37;;;;;;;16.17;9.48;;;15.60;99.90;;;;;;5031681;28;20112;-64
2022/10/18 00:07:03;;;;;;;22.55;8.93;;;15.60;99.90;;;;;;5030340;28;20112;-65
2022/10/18 00:09:29;;;;;;;20.02;8.63;;;15.60;99.90;;;;;;5022064;28;20052;-62
2022/10/18 00:11:55;;;;;;;27.40;9.15;;;15.60;99.90;;;;;;5038862;28;20816;-63
2022/10/18 00:14:21;;;;;;;20.98;8.23;;;15.60;99.90;;;;;;5027807;28;20065;-64
2022/10/18 00:16:47;;;;;;;25.35;9.73;;;15.60;99.90;;;;;;5027292;28;20496;-65
2022/10/18 00:19:12;;;;;;;15.30;8.23;;;15.60;99.90;;;;;;5030988;28;20033;-64
2022/10/18 00:21:38;;;;;;;19.05;8.70;;;15.60;99.90;;;;;;5030784;28;20029;-64
2022/10/18 00:24:04;;;;;;;21.17;8.90;;;15.60;99.90;;;;;;5032940;28;20025;-67
2022/10/18 00:26:30;;;;;;;26.23;9.82;;;15.70;99.90;;;;;;5029377;28;20052;-63
2022/10/18 00:28:58;;;;;;;28.58;9.25;;;15.70;99.90;;;;;;5030840;28;20083;-62
2022/10/18 00:31:30;;;;;;;24.27;10.60;;;15.70;99.90;;;;;;5026091;28;20044;-65
2022/10/18 00:34:01;;;;;;;16.98;8.57;;;15.70;99.90;;;;;;5031657;28;20029;-64
2022/10/18 00:36:29;;;;;;;24.92;9.63;;;15.60;99.90;;;;;;5026730;28;20446;-64
2022/10/18 00:38:54;;;;;;;23.58;10.00;;;15.50;99.90;;;;;;5029448;28;20056;-63
2022/10/18 00:41:24;;;;;;;21.10;10.15;;;15.50;99.90;;;;;;5038893;28;20372;-63
2022/10/18 00:44:04;;;;;;;20.55;10.25;;;15.50;99.90;;;;;;5028801;28;20033;-66
2022/10/18 00:46:32;;;;;;;28.05;10.57;;;15.50;99.90;;;;;;5026953;28;20029;-63
2022/10/18 00:49:20;;;;;;;25.52;10.48;;;15.50;99.90;;;;;;5028701;28;20083;-64
2022/10/18 00:51:54;;;;;;;29.08;11.35;;;15.40;99.90;;;;;;5016807;28;20054;-63
2022/10/18 00:54:20;;;;;;;19.00;10.07;;;15.40;99.90;;;;;;5025168;28;20026;-64
2022/10/18 00:56:46;;;;;;;22.23;9.88;;;15.40;99.90;;;;;;5029784;28;20028;-65
2022/10/18 00:59:16;;;;;;;30.15;9.55;;;15.50;99.90;;;;;;5031831;28;20029;-66
2022/10/18 01:01:42;;;;;;;30.02;11.00;;;15.50;99.90;;;;;;5038350;28;20032;-61
2022/10/18 01:04:08;;;;;;;23.73;9.65;;;15.40;99.90;;;;;;5032756;28;20034;-64
2022/10/18 01:06:54;;;;;;;22.52;9.73;;;15.40;99.90;;;;;;5029009;28;20104;-62
2022/10/18 01:09:33;;;;;;;26.27;11.23;;;15.50;99.90;;;;;;5025854;28;20033;-63
2022/10/18 01:12:35;;;;;;;36.22;10.55;;;15.50;99.90;;;;;;5028460;28;20124;-64
2022/10/18 01:15:22;;;;;;;41.90;9.52;;;15.60;99.90;;;;;;5027033;28;20403;-61
2022/10/18 01:18:06;;;;;;;26.20;10.80;;;15.60;99.90;;;;;;5027951;28;20025;-62
2022/10/18 01:20:59;;;;;;;26.38;10.65;;;15.60;99.90;;;;;;5033625;28;20044;-59
2022/10/18 01:23:49;;;;;;;28.42;12.43;;;15.60;99.90;;;;;;5028560;28;20040;-61
2022/10/18 01:26:35;;;;;;;28.35;12.65;;;15.60;99.90;;;;;;5033435;28;21815;-64
2022/10/18 01:29:14;;;;;;;34.08;12.85;;;15.70;99.90;;;;;;5025759;28;20415;-61
2022/10/18 01:32:02;;;;;;;34.45;15.75;;;15.70;99.90;;;;;;5034999;28;20025;-62
2022/10/18 01:34:32;;;;;;;36.70;14.13;;;15.70;99.90;;;;;;5026665;28;20029;-63
2022/10/18 01:37:01;;;;;;;35.03;13.55;;;15.70;99.90;;;;;;5030742;28;20025;-64
2022/10/18 01:39:32;;;;;;;31.65;13.68;;;15.70;99.90;;;;;;5024234;28;20045;-65
2022/10/18 01:42:02;;;;;;;46.33;13.23;;;15.70;99.90;;;;;;5026213;28;20104;-65
2022/10/18 01:44:31;;;;;;;36.70;12.55;;;15.70;99.90;;;;;;5022094;28;20132;-65
2022/10/18 01:46:58;;;;;;;31.23;13.25;;;15.70;99.90;;;;;;5028511;28;20112;-62
2022/10/18 01:49:25;;;;;;;33.65;13.70;;;15.70;99.90;;;;;;5028847;28;20056;-64
2022/10/18 01:51:51;;;;;;;40.33;15.75;;;15.70;99.90;;;;;;5034980;28;20025;-63
2022/10/18 01:54:21;;;;;;;53.95;19.98;;;15.70;99.90;;;;;;5039825;28;20548;-63
2022/10/18 01:57:18;;;;;;;54.00;21.83;;;15.70;99.90;;;;;;5034057;28;20022;-63
2022/10/18 02:00:16;;;;;;;54.55;21.65;;;15.80;99.90;;;;;;5025438;28;20518;-64
2022/10/18 02:02:50;;;;;;;61.20;22.10;;;15.80;99.90;;;;;;5025367;28;20041;-63
2022/10/18 02:05:37;;;;;;;48.75;19.83;;;15.80;99.90;;;;;;5032181;28;20033;-64
2022/10/18 02:08:33;;;;;;;64.50;21.15;;;15.80;99.90;;;;;;5024717;28;20436;-66
2022/10/18 02:11:05;;;;;;;44.40;16.73;;;15.80;99.90;;;;;;4995645;28;20438;-67
2022/10/18 02:13:40;;;;;;;53.53;18.80;;;15.80;99.90;;;;;;5026652;28;20021;-65
2022/10/18 02:16:16;;;;;;;63.50;20.30;;;15.80;99.90;;;;;;5024073;28;20052;-63
2022/10/18 02:18:50;;;;;;;60.65;20.77;;;15.90;99.90;;;;;;5029526;28;20103;-64
2022/10/18 02:21:19;;;;;;;49.45;21.58;;;15.90;99.90;;;;;;5029667;28;20025;-64
2022/10/18 02:23:46;;;;;;;59.60;21.42;;;15.90;99.90;;;;;;5035690;28;20393;-65
2022/10/18 02:26:13;;;;;;;52.50;20.30;;;15.90;99.90;;;;;;5030045;28;20033;-63
2022/10/18 02:28:39;;;;;;;57.63;23.75;;;15.90;99.90;;;;;;5033590;28;20025;-67
2022/10/18 02:31:27;;;;;;;49.45;20.33;;;15.90;99.90;;;;;;5030188;28;20442;-63
2022/10/18 02:34:16;;;;;;;47.55;20.02;;;15.90;99.90;;;;;;5018099;28;20034;-64
2022/10/18 02:36:46;;;;;;;123.13;23.35;;;15.90;99.90;;;;;;5023919;28;20100;-61
2022/10/18 02:39:21;;;;;;;51.55;19.58;;;16.00;99.90;;;;;;5025152;28;20113;-64
2022/10/18 02:41:48;;;;;;;57.72;21.85;;;16.00;99.90;;;;;;5033908;28;20459;-64
2022/10/18 02:44:14;;;;;;;72.22;22.52;;;15.90;99.90;;;;;;5034409;28;20132;-63
2022/10/18 02:46:40;;;;;;;63.95;22.33;;;15.90;99.90;;;;;;5033837;28;20029;-64
2022/10/18 02:49:06;;;;;;;59.47;22.35;;;15.90;99.90;;;;;;5026458;28;20399;-63
2022/10/18 02:51:31;;;;;;;68.15;22.73;;;15.90;99.90;;;;;;5027111;28;20172;-63
2022/10/18 02:53:57;;;;;;;81.78;23.27;;;15.80;99.90;;;;;;5026771;28;20056;-61
2022/10/18 02:56:22;;;;;;;58.78;21.25;;;15.80;99.90;;;;;;5026361;28;20044;-64
2022/10/18 02:58:48;;;;;;;71.20;23.48;;;15.80;99.90;;;;;;5024826;28;20029;-65
2022/10/18 03:01:13;;;;;;;93.35;24.92;;;15.80;99.90;;;;;;5028259;28;20107;-65
2022/10/18 03:03:39;;;;;;;64.88;24.52;;;15.80;99.90;;;;;;5026095;28;20483;-65
2022/10/18 03:06:04;;;;;;;49.35;20.55;;;15.80;99.90;;;;;;5021818;28;20021;-65
2022/10/18 03:08:30;;;;;;;71.88;24.55;;;15.80;99.90;;;;;;5027901;28;20033;-63
2022/10/18 03:10:55;;;;;;;65.85;24.42;;;15.80;99.90;;;;;;5014295;28;20168;-64
2022/10/18 03:13:21;;;;;;;81.72;25.20;;;15.80;99.90;;;;;;5033407;28;20138;-65
2022/10/18 03:15:47;;;;;;;46.47;19.45;;;15.80;99.90;;;;;;5025163;28;20048;-64
2022/10/18 03:18:13;;;;;;;54.15;20.88;;;15.90;99.90;;;;;;5027019;28;20025;-65
2022/10/18 03:20:40;;;;;;;63.20;21.63;;;15.90;99.90;;;;;;5029708;28;20644;-64
2022/10/18 03:23:06;;;;;;;64.93;22.70;;;15.90;99.90;;;;;;5031168;28;20029;-65
2022/10/18 03:25:32;;;;;;;56.25;22.40;;;15.90;99.90;;;;;;5023032;28;20084;-65
2022/10/18 03:27:58;;;;;;;60.28;21.45;;;15.90;99.90;;;;;;5020296;28;20034;-65
2022/10/18 03:30:23;;;;;;;82.63;24.35;;;15.90;99.90;;;;;;5006347;28;20095;-64
2022/10/18 03:32:49;;;;;;;103.30;24.23;;;15.80;99.90;;;;;;5030205;28;20549;-65
2022/10/18 03:35:15;;;;;;;77.10;23.20;;;15.80;99.90;;;;;;5026228;28;20073;-65
2022/10/18 03:37:40;;;;;;;82.78;23.15;;;15.80;99.90;;;;;;5026909;28;20025;-66
2022/10/18 03:40:07;;;;;;;87.45;22.45;;;15.80;99.90;;;;;;5026038;28;20033;-65
2022/10/18 03:42:32;;;;;;;84.85;23.35;;;15.80;99.90;;;;;;5030082;28;20044;-64
2022/10/18 03:44:58;;;;;;;52.63;19.70;;;15.80;99.90;;;;;;5026176;28;20041;-65
2022/10/18 03:47:23;;;;;;;57.58;18.83;;;15.70;99.90;;;;;;5026371;28;20060;-64
2022/10/18 03:49:49;;;;;;;74.93;20.60;;;15.80;99.90;;;;;;5028593;28;20048;-68
2022/10/18 03:52:14;;;;;;;47.05;18.05;;;15.80;99.90;;;;;;5034634;28;20025;-65
2022/10/18 03:54:40;;;;;;;86.15;22.52;;;15.80;99.90;;;;;;5036524;28;20029;-65
2022/10/18 03:57:05;;;;;;;49.25;19.88;;;15.80;99.90;;;;;;5034776;28;20083;-64
2022/10/18 03:59:31;;;;;;;56.30;19.95;;;15.80;99.90;;;;;;5033699;28;20056;-64
2022/10/18 04:01:56;;;;;;;52.67;20.25;;;15.80;99.90;;;;;;5033647;28;20049;-64
2022/10/18 04:04:22;;;;;;;48.58;18.35;;;15.80;99.90;;;;;;5034309;28;20036;-65
2022/10/18 04:06:47;;;;;;;101.47;21.17;;;15.80;99.90;;;;;;5032718;28;20033;-64
2022/10/18 04:09:13;;;;;;;91.18;23.10;;;15.80;99.90;;;;;;5025720;28;20033;-65
2022/10/18 04:11:38;;;;;;;100.00;23.42;;;15.70;99.90;;;;;;5036721;28;20034;-64
2022/10/18 04:14:04;;;;;;;96.15;23.25;;;15.70;99.90;;;;;;5034580;28;20018;-64
2022/10/18 04:16:29;;;;;;;44.25;17.73;;;15.70;99.90;;;;;;5031078;28;20033;-65
2022/10/18 04:18:55;;;;;;;64.22;19.77;;;15.70;99.90;;;;;;5039532;28;20066;-65
2022/10/18 04:21:21;;;;;;;72.47;19.35;;;15.70;99.90;;;;;;5040046;28;20030;-64
2022/10/18 04:23:47;;;;;;;69.97;19.38;;;15.70;99.90;;;;;;5030289;28;20100;-65
2022/10/18 04:26:15;;;;;;;55.80;19.45;;;15.80;99.90;;;;;;5030175;28;20029;-65
2022/10/18 04:28:41;;;;;;;86.95;22.17;;;15.70;99.90;;;;;;5035904;28;20025;-62
2022/10/18 04:31:08;;;;;;;67.70;20.05;;;15.70;99.90;;;;;;5035237;28;20453;-64
2022/10/18 04:33:33;;;;;;;82.22;20.58;;;15.60;99.90;;;;;;5033525;28;20029;-66
2022/10/18 04:36:06;;;;;;;98.55;21.80;;;15.60;99.90;;;;;;5029889;28;20480;-67
2022/10/18 04:38:32;;;;;;;71.07;20.10;;;15.50;99.90;;;;;;5011328;28;20021;-63
2022/10/18 04:40:57;;;;;;;83.63;19.58;;;15.50;99.90;;;;;;5036220;28;20071;-65
2022/10/18 04:43:23;;;;;;;86.32;20.25;;;15.50;99.90;;;;;;5036772;28;20052;-64
2022/10/18 04:45:49;;;;;;;75.63;21.70;;;15.50;99.90;;;;;;5031105;28;20403;-63
2022/10/18 04:48:16;;;;;;;82.32;21.60;;;15.60;99.90;;;;;;5027789;28;20439;-65
2022/10/18 04:50:41;;;;;;;71.53;19.98;;;15.60;99.90;;;;;;5034648;28;20036;-64
2022/10/18 04:53:07;;;;;;;57.47;19.77;;;15.50;99.90;;;;;;5035896;28;20049;-61
2022/10/18 04:55:33;;;;;;;62.70;20.85;;;15.60;99.90;;;;;;5031404;28;20087;-62
2022/10/18 04:57:58;;;;;;;80.18;20.67;;;15.60;99.90;;;;;;5031393;28;20372;-63
2022/10/18 05:00:24;;;;;;;92.82;21.77;;;15.60;99.90;;;;;;5019329;28;20116;-64
2022/10/18 05:02:54;;;;;;;54.85;18.55;;;15.60;99.90;;;;;;5027462;28;20478;-60
2022/10/18 05:05:19;;;;;;;76.15;20.92;;;15.60;99.90;;;;;;5031252;28;20040;-62
2022/10/18 05:07:45;;;;;;;63.72;19.92;;;15.60;99.90;;;;;;5031157;28;20410;-63
2022/10/18 05:10:10;;;;;;;67.70;19.02;;;15.60;99.90;;;;;;5031853;28;20033;-64
2022/10/18 05:12:36;;;;;;;79.95;21.10;;;15.60;99.90;;;;;;5026202;28;20042;-63
2022/10/18 05:15:02;;;;;;;79.47;20.80;;;15.60;99.90;;;;;;5023366;28;20101;-62
2022/10/18 05:17:27;;;;;;;74.75;21.10;;;15.60;99.90;;;;;;5028675;28;20025;-63
2022/10/18 05:19:53;;;;;;;95.57;22.58;;;15.60;99.90;;;;;;5021940;28;20443;-64
2022/10/18 05:22:18;;;;;;;57.97;18.95;;;15.60;99.90;;;;;;5021657;28;20033;-63
2022/10/18 05:24:44;;;;;;;66.78;20.02;;;15.70;99.90;;;;;;5022143;28;20029;-61
2022/10/18 05:27:10;;;;;;;73.80;19.58;;;15.70;99.90;;;;;;5023204;28;20033;-62
2022/10/18 05:29:36;;;;;;;91.53;21.63;;;15.70;99.90;;;;;;5026197;28;20045;-63
2022/10/18 05:32:02;;;;;;;73.75;19.98;;;15.70;99.90;;;;;;5030223;28;20060;-63
2022/10/18 05:34:30;;;;;;;59.92;18.88;;;15.60;99.90;;;;;;5021382;28;20111;-62
2022/10/18 05:36:56;;;;;;;58.30;17.50;;;15.70;99.90;;;;;;5028102;28;20025;-63
2022/10/18 05:39:22;;;;;;;83.97;20.50;;;15.70;99.90;;;;;;5025029;28;20026;-64
2022/10/18 05:41:47;;;;;;;74.78;20.58;;;15.70;99.90;;;;;;5036341;28;20036;-63
2022/10/18 05:44:13;;;;;;;72.47;19.92;;;15.70;99.90;;;;;;5031646;28;20048;-63
2022/10/18 05:46:39;;;;;;;51.50;16.85;;;15.70;99.90;;;;;;5024313;28;20060;-63
2022/10/18 05:49:04;;;;;;;59.40;17.90;;;15.80;99.90;;;;;;5028128;28;20037;-63
2022/10/18 05:51:30;;;;;;;97.93;21.42;;;15.80;99.90;;;;;;5034758;28;20048;-63
2022/10/18 05:53:55;;;;;;;58.35;19.52;;;15.80;99.90;;;;;;5024418;28;20017;-63
2022/10/18 05:56:21;;;;;;;48.58;16.42;;;15.70;99.90;;;;;;5029076;28;20075;-63
2022/10/18 05:58:50;;;;;;;47.03;16.50;;;15.80;99.90;;;;;;5029976;28;20104;-62
2022/10/18 06:01:16;;;;;;;53.30;17.17;;;15.80;99.90;;;;;;5029016;28;20021;-63
2022/10/18 06:03:41;;;;;;;91.93;22.92;;;15.90;99.90;;;;;;5030867;28;20220;-64
2022/10/18 06:06:10;;;;;;;88.97;22.30;;;15.80;99.90;;;;;;5034425;28;20036;-62
2022/10/18 06:08:36;;;;;;;61.70;19.80;;;15.80;99.90;;;;;;5030250;28;20492;-53
2022/10/18 06:11:14;;;;;;;54.10;17.88;;;15.80;99.90;;;;;;5030131;28;20052;-55
2022/10/18 06:13:44;;;;;;;61.55;18.83;;;15.90;99.90;;;;;;5025978;28;20029;-55
2022/10/18 06:16:11;;;;;;;73.38;20.85;;;15.80;99.90;;;;;;5026959;28;20110;-53
2022/10/18 06:18:38;;;;;;;80.72;20.73;;;15.90;99.90;;;;;;5027688;28;20113;-56
2022/10/18 06:21:03;;;;;;;93.10;22.25;;;15.90;99.90;;;;;;5028278;28;20017;-56
2022/10/18 06:23:29;;;;;;;82.40;21.70;;;15.80;99.90;;;;;;5026281;28;20025;-55
2022/10/18 06:26:03;;;;;;;81.18;20.30;;;15.90;99.90;;;;;;5028267;28;20022;-55
2022/10/18 06:28:29;;;;;;;84.95;21.13;;;15.90;99.90;;;;;;5025044;28;20091;-54
2022/10/18 06:30:55;;;;;;;73.03;20.85;;;15.90;99.90;;;;;;5029158;28;20037;-54
2022/10/18 06:33:21;;;;;;;105.57;19.58;;;15.80;99.90;;;;;;5025673;28;20079;-55
2022/10/18 06:36:03;;;;;;;98.38;20.80;;;15.90;99.90;;;;;;5027540;28;20038;-56
2022/10/18 06:38:30;;;;;;;91.25;16.92;;;15.90;99.90;;;;;;5025278;28;20084;-52
2022/10/18 06:40:56;;;;;;;57.50;18.33;;;15.90;99.90;;;;;;5027009;28;20025;-56
2022/10/18 06:43:23;;;;;;;73.38;19.90;;;15.90;99.90;;;;;;5019655;28;20034;-55
2022/10/18 06:45:49;;;;;;;90.45;21.90;;;15.90;99.90;;;;;;5029002;28;20050;-56
2022/10/18 06:48:16;;;;;;;77.53;20.10;;;15.90;99.90;;;;;;5029802;28;20029;-54
2022/10/18 06:50:41;;;;;;;41.65;15.63;;;15.90;99.90;;;;;;5029808;28;20017;-53
2022/10/18 06:53:07;;;;;;;51.85;14.93;;;15.90;99.90;;;;;;5028875;28;20048;-53
2022/10/18 06:55:33;;;;;;;43.03;15.02;;;15.90;99.90;;;;;;5029764;28;20108;-58
2022/10/18 06:57:59;;;;;;;66.97;17.25;;;16.00;99.90;;;;;;5029525;28;20104;-58
2022/10/18 07:00:24;;;;;;;78.10;20.75;;;16.00;99.90;;;;;;5026501;28;20845;-53
2022/10/18 07:02:50;;;;;;;63.17;17.75;;;16.10;99.90;;;;;;5031326;28;20029;-53
2022/10/18 07:05:15;;;;;;;67.15;20.85;;;16.00;99.90;;;;;;5029020;28;20025;-56
2022/10/18 07:07:41;;;;;;;79.43;23.85;;;16.10;99.90;;;;;;5029449;28;20424;-53
2022/10/18 07:10:07;;;;;;;92.85;21.13;;;16.10;99.90;;;;;;5033072;28;20040;-55
2022/10/18 07:12:32;;;;;;;94.78;25.38;;;16.10;99.90;;;;;;5029030;28;20399;-54
2022/10/18 07:14:58;;;;;;;79.60;21.75;;;16.10;99.90;;;;;;5026311;28;20037;-57
2022/10/18 07:17:24;;;;;;;87.20;23.63;;;16.10;99.90;;;;;;5029351;28;20030;-55
2022/10/18 07:19:49;;;;;;;122.75;25.52;;;16.10;99.90;;;;;;5030594;28;20029;-58
2022/10/18 07:22:15;;;;;;;81.22;22.77;;;16.10;99.90;;;;;;5033014;28;20017;-57
2022/10/18 07:24:40;;;;;;;82.88;23.15;;;16.10;99.90;;;;;;5028037;28;20030;-54
2022/10/18 07:27:06;;;;;;;88.13;26.02;;;16.10;99.90;;;;;;5030869;28;20686;-53
2022/10/18 07:29:33;;;;;;;80.65;24.08;;;16.10;99.90;;;;;;5032035;28;20033;-55
2022/10/18 07:31:58;;;;;;;75.00;24.02;;;16.10;99.90;;;;;;5037477;28;20544;-51
2022/10/18 07:34:24;;;;;;;84.90;23.77;;;16.10;99.90;;;;;;5032838;28;20104;-54
2022/10/18 07:36:49;;;;;;;70.72;20.90;;;16.10;99.90;;;;;;5030670;28;20033;-52
2022/10/18 07:39:15;;;;;;;81.85;25.00;;;16.10;99.90;;;;;;5031874;28;20792;-51
2022/10/18 07:41:40;;;;;;;72.85;21.67;;;16.10;99.90;;;;;;5038080;28;20033;-55
2022/10/18 07:44:06;;;;;;;82.20;22.15;;;16.10;99.90;;;;;;5025132;28;20348;-60
2022/10/18 07:46:32;;;;;;;69.53;22.15;;;16.10;99.90;;;;;;5029520;28;20048;-58
2022/10/18 07:48:58;;;;;;;73.43;20.80;;;16.10;99.90;;;;;;5029064;28;20025;-56
2022/10/18 07:51:25;;;;;;;68.60;20.73;;;16.20;99.90;;;;;;5033389;28;20080;-59
2022/10/18 07:53:50;;;;;;;68.15;20.77;;;16.20;99.90;;;;;;5031065;28;20025;-58
2022/10/18 07:56:19;;;;;;;69.90;20.05;;;16.20;99.90;;;;;;5035373;28;20068;-55
2022/10/18 07:58:47;;;;;;;73.47;20.23;;;16.30;99.90;;;;;;5032747;28;20029;-58
2022/10/18 08:01:14;;;;;;;77.28;21.17;;;16.30;99.90;;;;;;5029541;28;20022;-57
2022/10/18 08:03:41;;;;;;;132.75;21.98;;;16.30;99.90;;;;;;5027517;28;20901;-56
2022/10/18 08:06:08;;;;;;;70.82;21.17;;;16.30;99.90;;;;;;5028645;28;20030;-57
2022/10/18 08:08:35;;;;;;;87.93;21.45;;;16.20;99.90;;;;;;5030601;28;20041;-58
2022/10/18 08:11:07;;;;;;;67.80;19.80;;;16.30;99.90;;;;;;5035345;28;20029;-57
2022/10/18 08:13:32;;;;;;;75.40;20.52;;;16.30;99.90;;;;;;5032685;28;20038;-59
2022/10/18 08:16:04;;;;;;;74.75;21.60;;;16.30;99.90;;;;;;5029730;28;20399;-55
2022/10/18 08:18:30;;;;;;;68.30;20.52;;;16.30;99.90;;;;;;5030537;28;20172;-58
2022/10/18 08:20:58;;;;;;;91.28;22.88;;;16.30;99.90;;;;;;5032142;28;20120;-58
2022/10/18 08:23:23;;;;;;;84.47;21.52;;;16.30;99.90;;;;;;5032557;28;20049;-59
2022/10/18 08:25:49;;;;;;;86.78;23.38;;;16.30;99.90;;;;;;5032179;28;20065;-59
2022/10/18 08:28:16;;;;;;;105.75;26.60;;;16.30;99.90;;;;;;5031903;28;20571;-58
2022/10/18 08:30:42;;;;;;;99.82;25.30;;;16.30;99.90;;;;;;5033120;28;20055;-59
2022/10/18 08:33:08;;;;;;;107.80;23.98;;;16.30;99.90;;;;;;5035183;28;20073;-59
2022/10/18 08:35:33;;;;;;;73.03;22.52;;;16.30;99.90;;;;;;5029803;28;20052;-58
2022/10/18 08:37:59;;;;;;;107.28;26.33;;;16.30;99.90;;;;;;5029128;28;20539;-58
2022/10/18 08:40:26;;;;;;;98.70;24.10;;;16.40;99.90;;;;;;5032895;28;20021;-58
2022/10/18 08:43:16;;;;;;;79.90;22.02;;;16.40;99.90;;;;;;5038681;28;20128;-58
2022/10/18 08:45:43;;;;;;;80.65;21.25;;;16.30;99.90;;;;;;5027507;28;20029;-56
2022/10/18 08:48:25;;;;;;;64.35;18.95;;;16.30;99.90;;;;;;5026541;28;20060;-57
2022/10/18 08:50:55;;;;;;;87.30;23.20;;;16.40;99.90;;;;;;5030835;28;20025;-58
2022/10/18 08:53:28;;;;;;;71.15;21.13;;;16.40;99.90;;;;;;5033413;28;20033;-59
2022/10/18 08:56:20;;;;;;;88.53;22.58;;;16.40;99.90;;;;;;5029703;28;20013;-58
2022/10/18 08:58:45;;;;;;;86.85;22.05;;;16.40;99.90;;;;;;5030812;28;20025;-58
2022/10/18 09:01:35;;;;;;;81.15;22.23;;;16.40;99.90;;;;;;5034972;28;20034;-58
2022/10/18 09:04:31;;;;;;;65.82;19.23;;;16.40;99.90;;;;;;5027715;28;20025;-58
2022/10/18 09:07:21;;;;;;;72.43;19.83;;;16.50;99.90;;;;;;5026757;28;20045;-56
2022/10/18 09:09:59;;;;;;;87.63;22.35;;;16.50;99.90;;;;;;5026186;28;20074;-58
2022/10/18 09:12:50;;;;;;;82.18;22.92;;;16.40;99.90;;;;;;5031235;28;20075;-58
2022/10/18 09:15:32;;;;;;;95.97;23.63;;;16.40;99.90;;;;;;5027252;28;20041;-58
2022/10/18 09:18:34;;;;;;;111.75;25.98;;;16.40;99.90;;;;;;5030980;28;20037;-56
2022/10/18 09:21:13;;;;;;;123.75;27.85;;;16.40;99.90;;;;;;5013690;28;20057;-58
2022/10/18 09:23:57;;;;;;;131.52;29.80;;;16.40;99.90;;;;;;5031725;28;20110;-58
2022/10/18 09:26:24;;;;;;;119.30;30.73;;;16.40;99.90;;;;;;5025539;28;20033;-57
2022/10/18 09:29:03;;;;;;;165.35;35.10;;;16.40;99.90;;;;;;5031469;28;20029;-57
2022/10/18 09:31:47;;;;;;;129.30;32.30;;;16.30;99.90;;;;;;5033218;28;20506;-53
2022/10/18 09:34:26;;;;;;;141.35;33.28;;;16.30;99.90;;;;;;5030056;28;20051;-58
2022/10/18 09:36:53;;;;;;;127.03;34.05;;;16.30;99.90;;;;;;5029325;28;20041;-57
2022/10/18 09:39:23;;;;;;;132.98;31.52;;;16.40;99.90;;;;;;5023838;28;20542;-58
2022/10/18 09:41:54;;;;;;;160.20;35.78;;;16.50;99.90;;;;;;5029056;28;20033;-57
2022/10/18 09:44:38;;;;;;;170.98;35.72;;;16.60;99.90;;;;;;5027258;28;20025;-57
2022/10/18 09:47:11;;;;;;;198.32;38.05;;;16.70;99.90;;;;;;5026190;28;20491;-57
2022/10/18 09:49:47;;;;;;;184.85;38.15;;;16.70;99.90;;;;;;5029595;28;20044;-58
2022/10/18 09:52:23;;;;;;;166.65;36.42;;;16.60;99.90;;;;;;5028043;28;20072;-58
2022/10/18 09:54:54;;;;;;;186.65;37.58;;;16.50;99.90;;;;;;5029880;28;20018;-58
2022/10/18 09:57:31;;;;;;;172.50;38.70;;;16.50;99.90;;;;;;5029716;28;20044;-57
2022/10/18 09:59:59;;;;;;;176.10;37.97;;;16.70;99.90;;;;;;5025987;28;20033;-58
2022/10/18 10:02:24;;;;;;;159.73;38.22;;;16.80;99.90;;;;;;5031766;28;20439;-57
2022/10/18 10:04:53;;;;;;;195.20;39.47;;;16.80;99.90;;;;;;5029953;28;20049;-58
2022/10/18 10:07:33;;;;;;;185.73;40.83;;;16.80;99.90;;;;;;5029350;28;20018;-58
2022/10/18 10:10:28;;;;;;;177.70;36.72;;;16.80;99.90;;;;;;5031437;28;20044;-59
2022/10/18 10:13:21;;;;;;;173.45;38.58;;;16.90;99.90;;;;;;5030434;28;20036;-58
2022/10/18 10:16:00;;;;;;;156.85;38.30;;;16.90;99.90;;;;;;5027159;28;20045;-59
2022/10/18 10:18:29;;;;;;;168.25;37.42;;;16.90;99.90;;;;;;5024367;28;20029;-58
2022/10/18 10:20:59;;;;;;;157.73;38.33;;;16.90;99.90;;;;;;5031532;28;20029;-56
2022/10/18 10:23:43;;;;;;;174.60;36.25;;;16.90;99.90;;;;;;5027501;28;20033;-59
2022/10/18 10:26:21;;;;;;;;;;;17.00;99.90;;;;;;5027868;28;20479;-58
2022/10/18 10:28:47;;;;;;;145.60;37.40;;;17.00;99.90;;;;;;5028894;28;20024;-57
2022/10/18 10:31:32;;;;;;;130.43;35.45;;;17.00;99.90;;;;;;5034834;28;20101;-58
2022/10/18 10:33:58;;;;;;;124.65;32.47;;;17.00;99.90;;;;;;5026699;28;20029;-57
2022/10/18 10:36:24;;;;;;;139.00;39.50;;;17.00;99.90;;;;;;5029808;28;20079;-56
2022/10/18 10:39:17;;;;;;;130.75;35.08;;;17.00;99.90;;;;;;5031625;28;20025;-57
2022/10/18 10:41:53;;;;;;;125.32;36.30;;;17.00;99.90;;;;;;5032214;28;20025;-59
2022/10/18 10:44:23;;;;;;;140.35;36.53;;;17.00;99.90;;;;;;5026773;28;20527;-58
2022/10/18 10:46:51;;;;;;;119.68;34.13;;;17.00;99.90;;;;;;5027220;28;20029;-55
2022/10/18 10:49:20;;;;;;;124.85;35.45;;;17.10;99.90;;;;;;5029825;28;20033;-59
2022/10/18 10:51:54;;;;;;;103.20;31.48;;;17.10;99.90;;;;;;5035095;28;20437;-55
2022/10/18 10:54:22;;;;;;;123.53;33.20;;;17.30;99.90;;;;;;5028641;28;20060;-58
2022/10/18 10:56:59;;;;;;;110.57;32.67;;;17.30;99.90;;;;;;5029098;28;20769;-57
2022/10/18 10:59:28;;;;;;;99.97;30.13;;;17.30;99.90;;;;;;5025612;28;20382;-58
2022/10/18 11:02:13;;;;;;;129.73;31.95;;;17.40;99.90;;;;;;5026263;28;20036;-57
2022/10/18 11:04:40;;;;;;;142.30;32.65;;;17.50;99.90;;;;;;5026847;28;20029;-57
2022/10/18 11:07:08;;;;;;;123.05;34.05;;;17.70;99.90;;;;;;5023947;28;20394;-58
2022/10/18 11:09:58;;;;;;;112.80;32.47;;;17.80;99.90;;;;;;5028874;28;20033;-57
2022/10/18 11:12:33;;;;;;;109.68;32.80;;;17.90;99.90;;;;;;5042873;22;20053;-51
2022/10/18 11:15:23;;;;;;;104.28;32.90;;;17.70;99.90;;;;;;5046151;28;20032;-55
2022/10/18 11:18:27;;;;;;;100.05;33.30;;;17.70;99.90;;;;;;5046797;28;20025;-55
2022/10/18 11:21:10;;;;;;;89.45;30.27;;;17.60;99.90;;;;;;5044424;28;20079;-53
2022/10/18 11:23:38;;;;;;;90.47;30.77;;;17.70;99.90;;;;;;5051157;28;20505;-54
2022/10/18 11:26:12;;;;;;;87.95;29.83;;;17.70;99.90;;;;;;5050617;28;20059;-51
2022/10/18 11:29:04;;;;;;;84.63;29.67;;;17.80;99.90;;;;;;5049286;28;20051;-55
2022/10/18 11:31:53;;;;;;;94.90;31.20;;;17.80;99.90;;;;;;5050288;28;20048;-55
2022/10/18 11:34:45;;;;;;;80.45;30.15;;;17.70;99.90;;;;;;5049055;28;20112;-52
2022/10/18 11:37:52;;;;;;;80.30;27.88;;;17.70;99.90;;;;;;5049184;28;20111;-51
2022/10/18 11:40:32;;;;;;;92.85;29.50;;;17.70;99.90;;;;;;5006142;28;20026;-51
2022/10/18 11:43:26;;;;;;;86.50;30.17;;;17.70;99.90;;;;;;5041994;28;20068;-51
2022/10/18 11:46:02;;;;;;;79.82;29.42;;;17.70;99.90;;;;;;5047615;28;20031;-52
2022/10/18 11:48:49;;;;;;;75.65;29.08;;;17.70;99.90;;;;;;5048289;28;20119;-55
2022/10/18 11:51:37;;;;;;;81.07;30.92;;;17.70;99.90;;;;;;5042331;28;20021;-54
2022/10/18 11:54:06;;;;;;;81.45;29.00;;;17.70;99.90;;;;;;5043960;28;20040;-53
2022/10/18 11:56:50;;;;;;;79.55;28.33;;;17.80;99.90;;;;;;5045931;28;20017;-54
2022/10/18 11:59:37;;;;;;;92.50;28.73;;;17.80;99.90;;;;;;5046323;28;20055;-54
2022/10/18 12:02:32;;;;;;;93.68;31.48;;;17.80;99.90;;;;;;5045801;28;20111;-54
2022/10/18 12:05:00;;;;;;;90.45;35.28;;;17.70;99.90;;;;;;5045324;28;20037;-54
2022/10/18 12:07:33;;;;;;;98.55;35.17;;;17.60;99.90;;;;;;5046833;28;20029;-51
2022/10/18 12:10:00;;;;;;;88.25;35.30;;;17.70;99.90;;;;;;5046199;28;20047;-54
2022/10/18 12:12:50;;;;;;;93.15;36.33;;;17.90;99.90;;;;;;5047415;28;20044;-53
2022/10/18 12:15:21;;;;;;;95.90;37.92;;;18.10;99.90;;;;;;5048911;28;20021;-51
2022/10/18 12:17:52;;;;;;;90.45;36.55;;;18.20;99.90;;;;;;5051783;28;20033;-52
2022/10/18 12:20:32;;;;;;;105.90;38.97;;;18.40;99.90;;;;;;5045717;28;20681;-52
2022/10/18 12:22:57;;;;;;;104.97;41.10;;;18.60;99.90;;;;;;5050432;28;20121;-52
2022/10/18 12:25:25;;;;;;;103.85;40.85;;;18.90;99.90;;;;;;5051645;28;20078;-51
2022/10/18 12:28:25;;;;;;;114.68;40.50;;;19.00;99.90;;;;;;5046900;28;20025;-52
2022/10/18 12:31:28;;;;;;;92.43;37.20;;;19.10;99.90;;;;;;5034780;28;20410;-52
2022/10/18 12:33:58;;;;;;;93.43;38.05;;;19.40;99.90;;;;;;5046982;28;20025;-55
2022/10/18 12:36:49;;;;;;;78.70;34.15;;;19.40;99.90;;;;;;5047243;28;20021;-51
2022/10/18 12:39:22;;;;;;;87.82;36.25;;;19.40;99.90;;;;;;5018373;28;20037;-55
2022/10/18 12:41:51;;;;;;;81.95;35.42;;;19.50;99.90;;;;;;5053220;28;20032;-53
2022/10/18 12:44:27;;;;;;;74.63;32.72;;;19.50;99.90;;;;;;5049832;28;20041;-53
2022/10/18 12:46:59;;;;;;;86.43;38.15;;;19.50;99.90;;;;;;5052543;28;20025;-53
2022/10/18 12:49:36;;;;;;;103.63;39.97;;;19.50;99.90;;;;;;5047641;28;20029;-53